Time;durP1;ratioP1;P1;durP2;ratioP2;P2;SDS_P1;SDS_P2;PMS_P1;PMS_P2;Temp;Humidity;BMP_temperature;BMP_pressure;BME280_temperature;BME280_humidity;BME280_pressure;Samples;Min_cycle;Max_cycle;Signal;HPM_P1;HPM_P2
2022/02/14 00:01:33;;;;;;;63.17;6.95;;;;;;;;;;5092999;28;20204;-68
2022/02/14 00:04:01;;;;;;;64.18;6.38;;;;;;;;;;5092502;28;20336;-67
2022/02/14 00:06:28;;;;;;;63.88;6.75;;;;;;;;;;5092500;28;20208;-68
2022/02/14 00:08:55;;;;;;;64.38;6.22;;;;;;;;;;5092614;28;20562;-69
2022/02/14 00:11:24;;;;;;;61.30;5.90;;;;;;;;;;5092706;28;20746;-69
2022/02/14 00:13:53;;;;;;;61.25;5.22;;;;;;;;;;5092847;28;20572;-69
2022/02/14 00:16:20;;;;;;;62.63;5.57;;;;;;;;;;5092775;28;20234;-69
2022/02/14 00:18:47;;;;;;;62.15;5.00;;;;;;;;;;5092332;28;20210;-69
2022/02/14 00:21:14;;;;;;;62.75;6.03;;;;;;;;;;5092488;28;20214;-69
2022/02/14 00:23:41;;;;;;;68.10;6.10;;;;;;;;;;5092820;28;20605;-69
2022/02/14 00:26:08;;;;;;;61.60;4.88;;;;;;;;;;5092678;28;20604;-69
2022/02/14 00:28:36;;;;;;;62.13;5.70;;;;;;;;;;5092501;28;20200;-69
2022/02/14 00:31:04;;;;;;;60.75;5.40;;;;;;;;;;5092477;28;20306;-69
2022/02/14 00:33:31;;;;;;;62.70;6.07;;;;;;;;;;5092261;28;20228;-68
2022/02/14 00:36:00;;;;;;;60.72;4.60;;;;;;;;;;5092845;28;20634;-69
2022/02/14 00:38:27;;;;;;;60.33;4.68;;;;;;;;;;5092007;28;20299;-69
2022/02/14 00:40:54;;;;;;;60.85;4.93;;;;;;;;;;5092555;28;20204;-69
2022/02/14 00:43:21;;;;;;;61.65;5.40;;;;;;;;;;5092195;28;20215;-69
2022/02/14 00:45:49;;;;;;;63.15;5.38;;;;;;;;;;5092338;28;20208;-70
2022/02/14 00:48:17;;;;;;;64.47;5.90;;;;;;;;;;5091994;28;20219;-69
2022/02/14 00:50:45;;;;;;;65.00;6.50;;;;;;;;;;5092274;28;20555;-69
2022/02/14 00:53:12;;;;;;;62.20;5.63;;;;;;;;;;5092274;28;20300;-68
2022/02/14 00:55:39;;;;;;;62.13;5.97;;;;;;;;;;5092160;28;20582;-69
2022/02/14 00:58:06;;;;;;;64.65;5.63;;;;;;;;;;5091759;28;20211;-68
2022/02/14 01:00:33;;;;;;;61.28;5.20;;;;;;;;;;5091862;28;20261;-69
2022/02/14 01:03:02;;;;;;;63.45;6.03;;;;;;;;;;5092267;28;20208;-69
2022/02/14 01:05:30;;;;;;;63.03;5.63;;;;;;;;;;5092225;28;20224;-69
2022/02/14 01:07:57;;;;;;;63.75;5.65;;;;;;;;;;5091684;28;20211;-68
2022/02/14 01:10:25;;;;;;;63.38;5.80;;;;;;;;;;5091535;28;20204;-68
2022/02/14 01:12:52;;;;;;;61.67;5.65;;;;;;;;;;5091718;28;20209;-68
2022/02/14 01:15:19;;;;;;;62.25;5.72;;;;;;;;;;5091528;28;20254;-68
2022/02/14 01:17:46;;;;;;;61.53;5.30;;;;;;;;;;5095443;28;20294;-69
2022/02/14 01:20:14;;;;;;;61.65;5.43;;;;;;;;;;5095810;28;20215;-71
2022/02/14 01:22:43;;;;;;;61.25;5.22;;;;;;;;;;5095705;28;20204;-68
2022/02/14 01:25:10;;;;;;;61.35;5.32;;;;;;;;;;5095622;28;20602;-69
2022/02/14 01:27:38;;;;;;;62.40;4.80;;;;;;;;;;5095204;28;20291;-69
2022/02/14 01:30:06;;;;;;;61.40;4.78;;;;;;;;;;5095461;28;20215;-68
2022/02/14 01:32:33;;;;;;;62.05;5.10;;;;;;;;;;5095667;28;20228;-68
2022/02/14 01:35:00;;;;;;;61.83;5.72;;;;;;;;;;5095337;28;20712;-69
2022/02/14 01:37:28;;;;;;;60.97;5.47;;;;;;;;;;5095272;28;20204;-69
2022/02/14 01:39:56;;;;;;;61.97;4.93;;;;;;;;;;5095417;28;20214;-69
2022/02/14 01:42:23;;;;;;;62.90;4.93;;;;;;;;;;5095160;28;20632;-69
2022/02/14 01:44:52;;;;;;;62.05;5.40;;;;;;;;;;5095125;28;20776;-69
2022/02/14 01:47:20;;;;;;;64.18;5.22;;;;;;;;;;5095224;28;20303;-69
2022/02/14 01:49:48;;;;;;;63.97;5.68;;;;;;;;;;5095259;28;20306;-69
2022/02/14 01:52:16;;;;;;;60.65;4.50;;;;;;;;;;5095041;28;20227;-69
2022/02/14 01:54:44;;;;;;;62.53;4.93;;;;;;;;;;5095014;28;20224;-69
2022/02/14 01:57:13;;;;;;;60.88;4.93;;;;;;;;;;5095262;28;20209;-70
2022/02/14 01:59:41;;;;;;;59.17;4.35;;;;;;;;;;5095202;28;20689;-68
2022/02/14 02:02:11;;;;;;;61.03;4.43;;;;;;;;;;5094922;28;20698;-69
2022/02/14 02:04:39;;;;;;;59.65;4.43;;;;;;;;;;5095301;28;20231;-69
2022/02/14 02:07:06;;;;;;;66.10;8.38;;;;;;;;;;5094676;28;20690;-69
2022/02/14 02:09:33;;;;;;;63.10;5.63;;;;;;;;;;5094732;28;20295;-69
2022/02/14 02:14:47;;;;;;;61.75;5.38;;;;;;;;;;5094852;28;20297;-69
2022/02/14 02:17:14;;;;;;;60.42;4.80;;;;;;;;;;5094495;28;20579;-69
2022/02/14 02:19:41;;;;;;;59.97;4.05;;;;;;;;;;5094490;28;20312;-69
2022/02/14 02:22:08;;;;;;;65.90;7.07;;;;;;;;;;5094877;28;20572;-69
2022/02/14 02:24:42;;;;;;;68.53;8.15;;;;;;;;;;5094559;28;20224;-69
2022/02/14 02:27:09;;;;;;;63.58;7.00;;;;;;;;;;5093248;28;20297;-69
2022/02/14 02:29:37;;;;;;;65.28;5.90;;;;;;;;;;5094303;28;20320;-69
2022/02/14 02:32:06;;;;;;;67.57;9.00;;;;;;;;;;5094557;28;20228;-69
2022/02/14 02:34:33;;;;;;;68.28;8.35;;;;;;;;;;5094412;28;20251;-69
2022/02/14 02:37:00;;;;;;;62.53;5.25;;;;;;;;;;5094373;28;20703;-69
2022/02/14 02:39:27;;;;;;;67.93;6.82;;;;;;;;;;5094180;28;20208;-69
2022/02/14 02:41:58;;;;;;;61.55;5.00;;;;;;;;;;5094326;28;20207;-69
2022/02/14 02:44:25;;;;;;;61.17;4.90;;;;;;;;;;5094036;28;20260;-69
2022/02/14 02:46:53;;;;;;;67.07;6.35;;;;;;;;;;5094024;28;20209;-69
2022/02/14 02:49:21;;;;;;;79.93;9.25;;;;;;;;;;5093883;28;20459;-69
2022/02/14 02:51:49;;;;;;;122.70;22.45;;;;;;;;;;5093010;28;20677;-69
2022/02/14 02:54:16;;;;;;;79.03;10.02;;;;;;;;;;5093656;28;20572;-69
2022/02/14 02:56:45;;;;;;;78.47;10.95;;;;;;;;;;5094131;28;20228;-69
2022/02/14 02:59:14;;;;;;;63.03;4.53;;;;;;;;;;5093876;28;20633;-69
2022/02/14 03:01:41;;;;;;;60.63;4.45;;;;;;;;;;5094023;28;20202;-69
2022/02/14 03:04:09;;;;;;;60.58;3.92;;;;;;;;;;5093542;28;20220;-69
2022/02/14 03:06:37;;;;;;;89.43;15.10;;;;;;;;;;5093612;28;20694;-69
2022/02/14 03:09:04;;;;;;;69.40;10.07;;;;;;;;;;5093463;28;20335;-69
2022/02/14 03:11:32;;;;;;;64.45;6.10;;;;;;;;;;5093764;28;20220;-69
2022/02/14 03:13:59;;;;;;;64.47;7.10;;;;;;;;;;5093550;28;20282;-70
2022/02/14 03:16:28;;;;;;;61.03;5.50;;;;;;;;;;5093614;28;20212;-70
2022/02/14 03:18:55;;;;;;;61.78;5.07;;;;;;;;;;5093237;28;20204;-68
2022/02/14 03:21:23;;;;;;;61.22;4.55;;;;;;;;;;5093444;28;20197;-70
2022/02/14 03:23:50;;;;;;;60.42;4.63;;;;;;;;;;5093689;28;20262;-68
2022/02/14 03:26:19;;;;;;;61.20;4.32;;;;;;;;;;5093209;28;20254;-68
2022/02/14 03:28:46;;;;;;;59.72;4.38;;;;;;;;;;5093059;28;20214;-68
2022/02/14 03:31:14;;;;;;;61.15;4.30;;;;;;;;;;5093170;28;20204;-69
2022/02/14 03:33:43;;;;;;;66.25;4.45;;;;;;;;;;5093164;28;20227;-69
2022/02/14 03:36:11;;;;;;;60.50;3.97;;;;;;;;;;5093240;28;20209;-69
2022/02/14 03:38:39;;;;;;;63.05;3.95;;;;;;;;;;5092932;28;20212;-69
2022/02/14 03:41:06;;;;;;;60.10;3.90;;;;;;;;;;5093195;28;20207;-68
2022/02/14 03:43:33;;;;;;;59.90;3.88;;;;;;;;;;5093021;28;20669;-69
2022/02/14 03:46:00;;;;;;;63.45;4.15;;;;;;;;;;5092910;28;20211;-68
2022/02/14 03:48:27;;;;;;;61.38;3.88;;;;;;;;;;5093074;28;20568;-69
2022/02/14 03:50:56;;;;;;;59.58;3.72;;;;;;;;;;5093166;28;20601;-69
2022/02/14 03:53:24;;;;;;;59.58;4.10;;;;;;;;;;5092587;28;20715;-69
2022/02/14 03:55:51;;;;;;;60.70;4.57;;;;;;;;;;5092881;28;20241;-69
2022/02/14 03:58:18;;;;;;;61.08;4.63;;;;;;;;;;5092612;28;20676;-69
2022/02/14 04:00:46;;;;;;;61.30;4.38;;;;;;;;;;5092908;28;20205;-69
2022/02/14 04:03:13;;;;;;;61.05;3.65;;;;;;;;;;5092553;28;20203;-69
2022/02/14 04:05:40;;;;;;;58.72;3.55;;;;;;;;;;5092844;28;20211;-69
2022/02/14 04:08:09;;;;;;;59.72;3.10;;;;;;;;;;5092403;28;20214;-69
2022/02/14 04:10:36;;;;;;;63.97;3.50;;;;;;;;;;5092907;28;20217;-69
2022/02/14 04:13:03;;;;;;;59.63;3.78;;;;;;;;;;5092978;28;20226;-69
2022/02/14 04:15:30;;;;;;;59.00;3.30;;;;;;;;;;5092474;28;20232;-68
2022/02/14 04:17:57;;;;;;;58.90;3.63;;;;;;;;;;5092600;28;20241;-69
2022/02/14 04:20:24;;;;;;;59.85;3.88;;;;;;;;;;5092671;28;20207;-69
2022/02/14 04:22:52;;;;;;;60.22;4.40;;;;;;;;;;5092577;28;20687;-69
2022/02/14 04:25:20;;;;;;;60.60;3.67;;;;;;;;;;5092574;28;20225;-69
2022/02/14 04:27:48;;;;;;;61.22;4.00;;;;;;;;;;5095476;28;20210;-69
2022/02/14 04:30:15;;;;;;;59.58;3.75;;;;;;;;;;5116183;28;20284;-69
2022/02/14 04:32:42;;;;;;;60.15;4.05;;;;;;;;;;5115880;28;20231;-69
2022/02/14 04:35:10;;;;;;;60.83;4.00;;;;;;;;;;5115851;28;20284;-69
2022/02/14 04:37:37;;;;;;;60.28;3.80;;;;;;;;;;5115446;28;20235;-69
2022/02/14 04:40:05;;;;;;;62.95;4.32;;;;;;;;;;5116249;28;20268;-69
2022/02/14 04:42:33;;;;;;;59.95;4.35;;;;;;;;;;5108701;28;20661;-69
2022/02/14 04:45:01;;;;;;;59.97;4.07;;;;;;;;;;5092287;28;20331;-68
2022/02/14 04:47:28;;;;;;;63.80;4.35;;;;;;;;;;5091941;28;20204;-68
2022/02/14 04:49:56;;;;;;;64.93;4.50;;;;;;;;;;5091563;28;20680;-69
2022/02/14 04:52:23;;;;;;;60.80;4.55;;;;;;;;;;5091733;28;20577;-69
2022/02/14 04:54:51;;;;;;;60.47;4.40;;;;;;;;;;5091931;28;20224;-68
2022/02/14 04:57:18;;;;;;;59.83;4.13;;;;;;;;;;5091540;28;20204;-69
2022/02/14 04:59:46;;;;;;;59.95;4.40;;;;;;;;;;5092037;28;20235;-69
2022/02/14 05:02:14;;;;;;;60.30;5.05;;;;;;;;;;5091663;28;20202;-69
2022/02/14 05:04:41;;;;;;;60.25;4.43;;;;;;;;;;5091728;28;20235;-68
2022/02/14 05:07:08;;;;;;;62.08;5.13;;;;;;;;;;5091727;28;20204;-69
2022/02/14 05:09:35;;;;;;;62.20;5.07;;;;;;;;;;5091667;28;20207;-68
2022/02/14 05:12:02;;;;;;;60.15;4.80;;;;;;;;;;5092138;28;20220;-68
2022/02/14 05:14:29;;;;;;;64.70;4.68;;;;;;;;;;5091814;28;20226;-68
2022/02/14 05:16:58;;;;;;;61.28;4.70;;;;;;;;;;5091945;28;20290;-69
2022/02/14 05:19:25;;;;;;;63.03;5.53;;;;;;;;;;5091507;28;20291;-68
2022/02/14 05:21:52;;;;;;;62.90;5.50;;;;;;;;;;5091805;28;20208;-69
2022/02/14 05:24:19;;;;;;;64.50;5.40;;;;;;;;;;5091460;28;20220;-68
2022/02/14 05:26:46;;;;;;;60.75;5.15;;;;;;;;;;5091636;28;20695;-68
2022/02/14 05:29:14;;;;;;;71.05;5.68;;;;;;;;;;5091417;28;20212;-68
2022/02/14 05:31:41;;;;;;;60.58;5.18;;;;;;;;;;5091623;28;20208;-68
2022/02/14 05:34:09;;;;;;;61.30;5.72;;;;;;;;;;5091445;28;20232;-68
2022/02/14 05:36:37;;;;;;;60.92;5.55;;;;;;;;;;5091550;28;20355;-68
2022/02/14 05:39:05;;;;;;;62.28;6.20;;;;;;;;;;5091531;28;20212;-69
2022/02/14 05:41:32;;;;;;;60.78;4.80;;;;;;;;;;5091709;28;20295;-68
2022/02/14 05:44:01;;;;;;;62.28;5.15;;;;;;;;;;5091559;28;20588;-68
2022/02/14 05:46:28;;;;;;;62.75;5.28;;;;;;;;;;5091555;28;20589;-68
2022/02/14 05:48:55;;;;;;;62.45;5.00;;;;;;;;;;5091300;28;20300;-68
2022/02/14 05:51:24;;;;;;;60.67;5.22;;;;;;;;;;5091262;28;20201;-68
2022/02/14 05:53:51;;;;;;;61.88;5.75;;;;;;;;;;5091493;28;20581;-68
2022/02/14 05:56:18;;;;;;;61.55;5.22;;;;;;;;;;5091507;28;20586;-68
2022/02/14 05:58:46;;;;;;;62.35;5.10;;;;;;;;;;5090982;28;20215;-68
2022/02/14 06:01:13;;;;;;;62.10;6.22;;;;;;;;;;5091927;28;20578;-68
2022/02/14 06:03:40;;;;;;;66.25;5.28;;;;;;;;;;5094919;28;20310;-68
2022/02/14 06:06:08;;;;;;;61.58;4.90;;;;;;;;;;5095275;28;20621;-68
2022/02/14 06:08:36;;;;;;;62.95;5.25;;;;;;;;;;5094622;28;20299;-68
2022/02/14 06:11:03;;;;;;;60.45;5.00;;;;;;;;;;5095065;28;20206;-68
2022/02/14 06:13:31;;;;;;;62.80;5.90;;;;;;;;;;5094729;28;20314;-68
2022/02/14 06:15:58;;;;;;;61.15;5.68;;;;;;;;;;5095555;28;20613;-68
2022/02/14 06:18:25;;;;;;;61.38;5.70;;;;;;;;;;5094406;28;20200;-68
2022/02/14 06:20:53;;;;;;;63.08;5.70;;;;;;;;;;5094684;28;20588;-68
2022/02/14 06:23:20;;;;;;;61.25;5.57;;;;;;;;;;5093800;28;20335;-68
2022/02/14 06:25:49;;;;;;;62.40;5.20;;;;;;;;;;5094877;28;20215;-68
2022/02/14 06:28:16;;;;;;;61.20;6.03;;;;;;;;;;5094444;28;20214;-68
2022/02/14 06:30:45;;;;;;;63.88;5.60;;;;;;;;;;5094623;28;20584;-68
2022/02/14 06:33:13;;;;;;;59.60;4.22;;;;;;;;;;5094526;28;20323;-68
2022/02/14 06:35:40;;;;;;;61.08;4.60;;;;;;;;;;5094507;28;20677;-68
2022/02/14 06:38:08;;;;;;;69.40;5.50;;;;;;;;;;5094569;28;20243;-68
2022/02/14 06:40:35;;;;;;;61.70;5.10;;;;;;;;;;5094321;28;20679;-68
2022/02/14 06:43:04;;;;;;;63.95;4.70;;;;;;;;;;5094252;28;20203;-68
2022/02/14 06:45:31;;;;;;;66.78;5.75;;;;;;;;;;5094469;28;20220;-68
2022/02/14 06:47:58;;;;;;;63.50;5.10;;;;;;;;;;5094176;28;20298;-69
2022/02/14 06:50:25;;;;;;;61.28;4.95;;;;;;;;;;5094431;28;20295;-69
2022/02/14 06:52:52;;;;;;;61.03;5.22;;;;;;;;;;5094007;28;20220;-69
2022/02/14 06:55:19;;;;;;;60.90;5.10;;;;;;;;;;5093989;28;20232;-69
2022/02/14 06:57:47;;;;;;;63.35;5.75;;;;;;;;;;5093734;28;20205;-69
2022/02/14 07:00:15;;;;;;;62.30;5.95;;;;;;;;;;5093892;28;20630;-69
2022/02/14 07:02:43;;;;;;;62.40;5.20;;;;;;;;;;5094058;28;20283;-69
2022/02/14 07:05:11;;;;;;;72.93;5.60;;;;;;;;;;5094046;28;20220;-69
2022/02/14 07:07:39;;;;;;;61.35;5.85;;;;;;;;;;5093760;28;20251;-68
2022/02/14 07:10:06;;;;;;;63.58;6.00;;;;;;;;;;5093798;28;20295;-69
2022/02/14 07:12:34;;;;;;;61.83;5.45;;;;;;;;;;5093467;28;20216;-68
2022/02/14 07:15:01;;;;;;;65.63;5.68;;;;;;;;;;5093148;28;20228;-68
2022/02/14 07:17:29;;;;;;;63.25;5.95;;;;;;;;;;5093609;28;20200;-68
2022/02/14 07:19:56;;;;;;;71.43;5.72;;;;;;;;;;5093634;28;20302;-68
2022/02/14 07:22:23;;;;;;;61.78;5.80;;;;;;;;;;5093550;28;20204;-68
2022/02/14 07:24:51;;;;;;;65.43;5.72;;;;;;;;;;5093347;28;20577;-68
2022/02/14 07:27:18;;;;;;;63.33;6.60;;;;;;;;;;5093167;28;20299;-68
2022/02/14 07:29:45;;;;;;;63.35;5.90;;;;;;;;;;5093625;28;20216;-68
2022/02/14 07:32:12;;;;;;;64.72;5.93;;;;;;;;;;5093270;28;20208;-68
2022/02/14 07:34:41;;;;;;;70.18;6.40;;;;;;;;;;5093203;28;20235;-68
2022/02/14 07:37:08;;;;;;;61.45;6.20;;;;;;;;;;5092855;28;20300;-68
2022/02/14 07:39:35;;;;;;;66.95;6.50;;;;;;;;;;5093084;28;20210;-68
2022/02/14 07:42:03;;;;;;;64.13;5.60;;;;;;;;;;5093117;28;20619;-68
2022/02/14 07:44:30;;;;;;;59.63;4.95;;;;;;;;;;5093071;28;20216;-68
2022/02/14 07:46:57;;;;;;;59.67;5.00;;;;;;;;;;5093239;28;20668;-68
2022/02/14 07:49:24;;;;;;;65.50;6.55;;;;;;;;;;5092976;28;20239;-68
2022/02/14 07:51:53;;;;;;;60.47;5.55;;;;;;;;;;5093005;28;20200;-68
2022/02/14 07:54:20;;;;;;;65.93;5.22;;;;;;;;;;5092703;28;20255;-68
2022/02/14 07:56:47;;;;;;;71.70;6.50;;;;;;;;;;5093209;28;20212;-68
2022/02/14 07:59:14;;;;;;;61.40;5.70;;;;;;;;;;5092803;28;20585;-68
2022/02/14 08:01:41;;;;;;;61.97;5.78;;;;;;;;;;5093165;28;20204;-68
2022/02/14 08:04:09;;;;;;;62.33;5.60;;;;;;;;;;5092958;28;20220;-68
2022/02/14 08:06:37;;;;;;;61.22;5.55;;;;;;;;;;5092775;28;20209;-68
2022/02/14 08:09:06;;;;;;;62.40;6.22;;;;;;;;;;5092389;28;20676;-68
2022/02/14 08:11:33;;;;;;;64.93;5.93;;;;;;;;;;5093039;28;20208;-68
2022/02/14 08:14:01;;;;;;;60.95;5.60;;;;;;;;;;5092416;28;20323;-68
2022/02/14 08:16:28;;;;;;;64.30;6.95;;;;;;;;;;5092489;28;20209;-68
2022/02/14 08:18:55;;;;;;;68.45;6.22;;;;;;;;;;5092300;28;20300;-68
2022/02/14 08:21:23;;;;;;;60.22;5.00;;;;;;;;;;5092365;28;20212;-68
2022/02/14 08:23:50;;;;;;;65.55;6.10;;;;;;;;;;5092568;28;20220;-68
2022/02/14 08:26:18;;;;;;;70.63;6.60;;;;;;;;;;5091712;28;20204;-68
2022/02/14 08:28:46;;;;;;;65.38;5.78;;;;;;;;;;5091933;28;20223;-68
2022/02/14 08:31:13;;;;;;;60.90;5.00;;;;;;;;;;5092227;28;20294;-68
2022/02/14 08:33:40;;;;;;;64.70;6.90;;;;;;;;;;5091921;28;20234;-68
2022/02/14 08:36:07;;;;;;;63.58;7.00;;;;;;;;;;5092257;28;20711;-68
2022/02/14 08:38:35;;;;;;;69.63;6.63;;;;;;;;;;5091860;28;20211;-68
2022/02/14 08:41:03;;;;;;;62.55;5.60;;;;;;;;;;5092197;28;20213;-69
2022/02/14 08:43:32;;;;;;;68.22;6.80;;;;;;;;;;5092057;28;20232;-68
2022/02/14 08:45:59;;;;;;;66.40;6.13;;;;;;;;;;5092192;28;20291;-68
2022/02/14 08:48:27;;;;;;;61.38;5.80;;;;;;;;;;5091719;28;20200;-68
2022/02/14 08:50:54;;;;;;;64.55;6.43;;;;;;;;;;5092169;28;20200;-68
2022/02/14 08:53:23;;;;;;;61.92;5.50;;;;;;;;;;5091980;28;20599;-68
2022/02/14 08:55:50;;;;;;;61.75;5.35;;;;;;;;;;5091775;28;20680;-68
2022/02/14 08:58:17;;;;;;;62.53;5.63;;;;;;;;;;5091869;28;20299;-68
2022/02/14 09:00:45;;;;;;;85.30;6.20;;;;;;;;;;5089618;28;20212;-69
2022/02/14 09:03:13;;;;;;;61.55;4.90;;;;;;;;;;5091911;28;20295;-69
2022/02/14 09:05:40;;;;;;;62.40;4.68;;;;;;;;;;5091975;28;20212;-69
2022/02/14 09:08:07;;;;;;;64.13;5.45;;;;;;;;;;5091751;28;20293;-68
2022/02/14 09:10:35;;;;;;;64.65;5.35;;;;;;;;;;5091968;28;20212;-67
2022/02/14 09:13:02;;;;;;;63.57;4.90;;;;;;;;;;5091657;28;20203;-69
2022/02/14 09:15:29;;;;;;;63.30;5.63;;;;;;;;;;5089475;28;20472;-68
2022/02/14 09:17:58;;;;;;;61.93;5.47;;;;;;;;;;5091461;28;20449;-69
2022/02/14 09:20:25;;;;;;;62.63;5.57;;;;;;;;;;5091818;28;20531;-69
2022/02/14 09:22:54;;;;;;;62.93;5.90;;;;;;;;;;5091617;28;20449;-69
2022/02/14 09:25:21;;;;;;;60.30;6.13;;;;;;;;;;5091946;28;20561;-69
2022/02/14 09:27:49;;;;;;;62.50;5.30;;;;;;;;;;5091273;28;20456;-69
2022/02/14 09:30:16;;;;;;;64.57;5.50;;;;;;;;;;5091480;28;20454;-69
2022/02/14 09:32:43;;;;;;;59.90;4.30;;;;;;;;;;5091458;28;20541;-69
2022/02/14 09:35:12;;;;;;;62.00;4.17;;;;;;;;;;5091803;28;20489;-69
2022/02/14 09:37:39;;;;;;;61.60;4.70;;;;;;;;;;5093663;28;20832;-69
2022/02/14 09:40:07;;;;;;;64.47;5.03;;;;;;;;;;5095498;28;20450;-69
2022/02/14 09:42:34;;;;;;;64.23;5.50;;;;;;;;;;5095679;28;20533;-69
2022/02/14 09:45:01;;;;;;;63.90;4.33;;;;;;;;;;5095324;28;20543;-69
2022/02/14 09:47:29;;;;;;;61.80;5.17;;;;;;;;;;5093354;28;20469;-69
2022/02/14 09:49:56;;;;;;;60.40;4.27;;;;;;;;;;5095475;28;20446;-69
2022/02/14 09:52:24;;;;;;;68.17;5.47;;;;;;;;;;5095354;28;20446;-69
2022/02/14 09:54:52;;;;;;;63.03;4.77;;;;;;;;;;5094981;28;20581;-69
2022/02/14 09:57:19;;;;;;;62.50;4.80;;;;;;;;;;5094781;28;20442;-69
2022/02/14 09:59:46;;;;;;;60.20;3.97;;;;;;;;;;5095137;28;20453;-69
2022/02/14 10:02:19;;;;;;;59.60;4.90;;;;;;;;;;5095333;28;20539;-69
2022/02/14 10:05:03;;;;;;;65.77;4.97;;;;;;;;;;5094853;28;20469;-69
2022/02/14 10:07:40;;;;;;;60.57;4.53;;;;;;;;;;5094525;28;20445;-69
2022/02/14 10:10:09;;;;;;;60.80;4.23;;;;;;;;;;5095147;28;20856;-69
2022/02/14 10:12:41;;;;;;;61.83;4.43;;;;;;;;;;5094931;28;20481;-69
2022/02/14 10:15:09;;;;;;;61.20;4.53;;;;;;;;;;5094613;28;20490;-69
2022/02/14 10:17:39;;;;;;;60.43;4.20;;;;;;;;;;5094393;28;20450;-68
2022/02/14 10:20:07;;;;;;;62.40;4.37;;;;;;;;;;5080422;28;20451;-68
2022/02/14 10:22:34;;;;;;;61.33;4.57;;;;;;;;;;5074692;28;20534;-68
2022/02/14 10:25:03;;;;;;;59.60;4.40;;;;;;;;;;5074485;28;20470;-68
2022/02/14 10:27:32;;;;;;;62.20;4.80;;;;;;;;;;5074111;28;20451;-68
2022/02/14 10:30:07;;;;;;;65.73;4.70;;;;;;;;;;5074258;28;20736;-68
2022/02/14 10:32:34;;;;;;;59.07;4.20;;;;;;;;;;5074345;28;20435;-70
2022/02/14 10:35:04;;;;;;;60.67;4.97;;;;;;;;;;5074318;28;20483;-69
2022/02/14 10:37:41;;;;;;;61.93;4.40;;;;;;;;;;5073771;28;20477;-70
2022/02/14 10:40:11;;;;;;;61.47;4.53;;;;;;;;;;5074070;28;20443;-70
2022/02/14 10:42:39;;;;;;;60.80;4.17;;;;;;;;;;5073996;28;20532;-69
2022/02/14 10:45:11;;;;;;;64.03;4.50;;;;;;;;;;5073804;28;20466;-69
2022/02/14 10:47:39;;;;;;;62.30;4.23;;;;;;;;;;5073635;28;20462;-70
2022/02/14 10:50:08;;;;;;;62.47;4.33;;;;;;;;;;5072533;28;20455;-70
2022/02/14 10:52:36;;;;;;;63.97;4.90;;;;;;;;;;5093817;28;20500;-69
2022/02/14 10:55:04;;;;;;;66.70;5.33;;;;;;;;;;5094365;28;20578;-69
2022/02/14 10:57:34;;;;;;;63.23;4.80;;;;;;;;;;5093508;28;20455;-69
2022/02/14 11:00:02;;;;;;;61.50;3.90;;;;;;;;;;5093834;28;20958;-70
2022/02/14 11:02:29;;;;;;;62.57;4.70;;;;;;;;;;5093881;28;20486;-70
2022/02/14 11:04:57;;;;;;;62.23;4.50;;;;;;;;;;5093932;28;20545;-69
2022/02/14 11:07:26;;;;;;;62.10;4.23;;;;;;;;;;5093594;28;20451;-70
2022/02/14 11:09:56;;;;;;;61.07;4.83;;;;;;;;;;5094262;28;20541;-69
2022/02/14 11:12:25;;;;;;;62.13;4.30;;;;;;;;;;5093876;28;20461;-70
2022/02/14 11:14:54;;;;;;;62.07;3.90;;;;;;;;;;5093663;28;21111;-69
2022/02/14 11:17:25;;;;;;;61.60;3.63;;;;;;;;;;5093396;28;20504;-69
2022/02/14 11:19:54;;;;;;;60.40;3.67;;;;;;;;;;5093595;28;20451;-70
2022/02/14 11:22:22;;;;;;;59.50;3.60;;;;;;;;;;5085437;28;20452;-69
2022/02/14 11:24:51;;;;;;;62.10;3.53;;;;;;;;;;5073058;28;20535;-70
2022/02/14 11:27:20;;;;;;;62.00;3.33;;;;;;;;;;5073076;28;20876;-70
2022/02/14 11:29:52;;;;;;;66.00;3.70;;;;;;;;;;5073060;28;20466;-70
2022/02/14 11:32:24;;;;;;;66.53;4.10;;;;;;;;;;5072752;28;20940;-70
2022/02/14 11:34:52;;;;;;;61.63;4.00;;;;;;;;;;5072679;28;20563;-70
2022/02/14 11:37:19;;;;;;;63.50;3.50;;;;;;;;;;5072840;28;20473;-69
2022/02/14 11:39:47;;;;;;;60.50;3.67;;;;;;;;;;5072842;28;20893;-70
2022/02/14 11:42:14;;;;;;;60.43;3.47;;;;;;;;;;5072676;28;20454;-69
2022/02/14 11:44:42;;;;;;;59.60;3.20;;;;;;;;;;5072788;28;20499;-67
2022/02/14 11:47:11;;;;;;;59.03;3.37;;;;;;;;;;5072205;28;20541;-68
2022/02/14 11:49:40;;;;;;;58.37;3.13;;;;;;;;;;5073132;28;20444;-68
2022/02/14 11:52:08;;;;;;;58.80;3.40;;;;;;;;;;5072779;28;20474;-69
2022/02/14 11:54:37;;;;;;;60.53;3.33;;;;;;;;;;5071037;28;20856;-70
2022/02/14 11:57:29;;;;;;;62.20;3.70;;;;;;;;;;5073052;28;20445;-69
2022/02/14 12:00:11;;;;;;;62.40;3.40;;;;;;;;;;5057558;28;20832;-69
2022/02/14 12:02:38;;;;;;;59.20;3.80;;;;;;;;;;5072280;28;20458;-69
2022/02/14 12:05:07;;;;;;;59.80;3.90;;;;;;;;;;5072570;28;20467;-69
2022/02/14 12:07:36;;;;;;;59.17;3.80;;;;;;;;;;5072071;28;20443;-70
2022/02/14 12:10:21;;;;;;;60.60;3.40;;;;;;;;;;5072262;28;20504;-70
2022/02/14 12:13:06;;;;;;;60.60;3.50;;;;;;;;;;5072471;28;20834;-70
2022/02/14 12:21:13;;;;;;;60.87;4.10;;;;;;;;;;5071019;28;20509;-69
2022/02/14 12:23:42;;;;;;;60.17;3.50;;;;;;;;;;5072178;28;20546;-69
2022/02/14 12:26:09;;;;;;;60.93;4.13;;;;;;;;;;5071966;28;20449;-69
2022/02/14 12:28:38;;;;;;;58.83;3.40;;;;;;;;;;5071835;28;20459;-69
2022/02/14 12:31:06;;;;;;;59.33;3.40;;;;;;;;;;5072147;28;20538;-69
2022/02/14 12:33:33;;;;;;;58.33;3.57;;;;;;;;;;5071773;28;20537;-69
2022/02/14 12:36:01;;;;;;;60.17;3.60;;;;;;;;;;5071689;28;20487;-69
2022/02/14 12:38:31;;;;;;;59.37;3.57;;;;;;;;;;5071882;28;20453;-69
2022/02/14 12:40:59;;;;;;;59.37;3.60;;;;;;;;;;5072371;28;20450;-69
2022/02/14 12:43:27;;;;;;;58.37;3.30;;;;;;;;;;5071772;28;20442;-68
2022/02/14 12:45:55;;;;;;;60.17;4.10;;;;;;;;;;5071582;28;20450;-68
2022/02/14 12:48:29;;;;;;;61.87;3.73;;;;;;;;;;5071688;28;20451;-68
2022/02/14 12:50:56;;;;;;;60.67;3.63;;;;;;;;;;5071749;28;20442;-68
2022/02/14 12:53:24;;;;;;;60.20;3.70;;;;;;;;;;5070750;28;20449;-68
2022/02/14 12:55:57;;;;;;;59.07;3.47;;;;;;;;;;5071669;28;20483;-68
2022/02/14 12:58:25;;;;;;;59.20;3.77;;;;;;;;;;5071273;28;20452;-68
2022/02/14 13:00:52;;;;;;;59.27;3.27;;;;;;;;;;5071799;28;20455;-68
2022/02/14 13:03:19;;;;;;;61.17;3.70;;;;;;;;;;5071894;28;20542;-68
2022/02/14 13:05:50;;;;;;;60.30;3.57;;;;;;;;;;5071706;28;20439;-68
2022/02/14 13:08:18;;;;;;;60.73;3.57;;;;;;;;;;5071284;28;20947;-69
2022/02/14 13:10:46;;;;;;;60.60;3.70;;;;;;;;;;5072289;28;20453;-68
2022/02/14 13:13:28;;;;;;;58.40;3.20;;;;;;;;;;5074831;28;20450;-68
2022/02/14 13:15:56;;;;;;;58.90;3.43;;;;;;;;;;5075667;28;20572;-68
2022/02/14 13:18:24;;;;;;;59.60;3.50;;;;;;;;;;5075554;28;20455;-68
2022/02/14 13:20:57;;;;;;;58.37;3.30;;;;;;;;;;5075772;28;20439;-68
2022/02/14 13:23:24;;;;;;;59.37;3.30;;;;;;;;;;5074843;28;20451;-68
2022/02/14 13:25:52;;;;;;;60.33;3.40;;;;;;;;;;5076072;28;20453;-69
2022/02/14 13:28:21;;;;;;;60.40;3.40;;;;;;;;;;5087546;28;20448;-68
2022/02/14 13:30:52;;;;;;;58.70;3.33;;;;;;;;;;5097603;28;20451;-69
2022/02/14 13:33:19;;;;;;;60.73;3.63;;;;;;;;;;5094961;28;20456;-69
2022/02/14 13:35:47;;;;;;;59.37;3.40;;;;;;;;;;5093243;28;20483;-68
2022/02/14 13:38:14;;;;;;;65.40;3.60;;;;;;;;;;5092963;28;20443;-68
2022/02/14 13:40:43;;;;;;;59.10;3.70;;;;;;;;;;5095674;28;20514;-68
2022/02/14 13:43:17;;;;;;;60.70;3.80;;;;;;;;;;5086360;28;20916;-69
2022/02/14 13:45:47;;;;;;;58.93;3.60;;;;;;;;;;5075213;28;20447;-69
2022/02/14 13:48:15;;;;;;;58.43;3.40;;;;;;;;;;5074736;28;20443;-69
2022/02/14 13:50:43;;;;;;;58.50;3.30;;;;;;;;;;5075225;28;20815;-68
2022/02/14 13:53:20;;;;;;;58.63;2.93;;;;;;;;;;5073233;28;20455;-69
2022/02/14 13:56:01;;;;;;;66.03;3.63;;;;;;;;;;5075240;28;20505;-69
2022/02/14 13:58:28;;;;;;;58.77;3.20;;;;;;;;;;5075134;28;20931;-69
2022/02/14 14:00:56;;;;;;;59.70;3.90;;;;;;;;;;5074569;28;20538;-68
2022/02/14 14:03:25;;;;;;;61.17;4.23;;;;;;;;;;5074915;28;20450;-69
2022/02/14 14:05:53;;;;;;;58.40;3.40;;;;;;;;;;5074773;28;20443;-69
2022/02/14 14:08:33;;;;;;;58.67;3.30;;;;;;;;;;5074451;28;20450;-69
2022/02/14 14:11:00;;;;;;;59.40;3.37;;;;;;;;;;5074820;28;20447;-68
2022/02/14 14:13:38;;;;;;;63.30;3.17;;;;;;;;;;5074278;28;20443;-67
2022/02/14 14:16:06;;;;;;;58.60;2.93;;;;;;;;;;5074613;28;20486;-67
2022/02/14 14:18:34;;;;;;;58.97;3.37;;;;;;;;;;5074242;28;20443;-67
2022/02/14 14:21:06;;;;;;;61.13;3.30;;;;;;;;;;5074449;28;20458;-68
2022/02/14 14:23:33;;;;;;;60.03;3.30;;;;;;;;;;5074092;28;20472;-68
2022/02/14 14:26:00;;;;;;;60.27;3.30;;;;;;;;;;5074076;28;20489;-68
2022/02/14 14:28:28;;;;;;;58.37;3.40;;;;;;;;;;5074050;28;20447;-68
2022/02/14 14:30:55;;;;;;;58.77;3.30;;;;;;;;;;5076111;28;21014;-68
2022/02/14 14:33:23;;;;;;;60.40;3.27;;;;;;;;;;5094368;28;20438;-68
2022/02/14 14:35:50;;;;;;;59.17;3.50;;;;;;;;;;5094252;28;20476;-68
2022/02/14 14:38:19;;;;;;;59.17;3.67;;;;;;;;;;5093965;28;20475;-68
2022/02/14 14:40:46;;;;;;;58.77;3.30;;;;;;;;;;5094559;28;20489;-68
2022/02/14 14:43:14;;;;;;;59.10;3.10;;;;;;;;;;5094133;28;20449;-68